Main page
METAR-TAF:

METAR-TAF

Airports :

Pisa, Italy

Pisa International Airport

latitude: 43-41N, longitude: 010-23E, elevation: 2 m

Current weather observation

The report was made 24 minutes ago, at 02:15 UTC
Wind 5 kt from the Southeast
Temperature 18°C
Humidity 94%
Pressure 1006 hPa
Visibility 10 km or more
no clouds below 1500 m and no cumulonimbus

METAR: LIRP 260215Z 13005KT CAVOK 18/17 Q1006 NOSIG

Time: 04:39 (02:39 UTC)

Forecast

The report was made 3 hours and 39 minutes ago, at 23:00 UTC
Forecast valid from 26 at 00 UTC to 26 at 24 UTC
Wind 5 kt from the East
Visibility 10 km or more
no clouds below 1500 m and no cumulonimbus
Becoming
from 26 at 11 UTC to 26 at 12 UTC
Wind 10 kt from the West

TAF: LIRP 252300Z 2600/2624 09005KT CAVOK BECMG 2611/2612 26010KT

Weather observations and forecasts of more than 4000 airports (METAR and TAF reports).

The available stations are represented by yellow and red dots on the map.

Hover mouse over dot to see the name of the station.

Then click to see weather observations and forecasts.

To change the map : click on the green buttons with a black cross to zoom in, on the green button with a dash to zoom out, or on the green arrows for adjacent maps.


METAR-TAF: